Time;durP1;ratioP1;P1;durP2;ratioP2;P2;SDS_P1;SDS_P2;PMS_P1;PMS_P2;Temp;Humidity;BMP_temperature;BMP_pressure;BME280_temperature;BME280_humidity;BME280_pressure;Samples;Min_cycle;Max_cycle;Signal;HPM_P1;HPM_P2
2022/05/17 00:04:04;;;;;;;16.60;6.10;;;15.00;99.90;;;;;;10309853;28;20212;-59
2022/05/17 00:09:06;;;;;;;10.48;5.82;;;15.00;99.90;;;;;;10307045;28;20054;-59
2022/05/17 00:14:08;;;;;;;12.45;5.65;;;15.00;99.90;;;;;;10291036;28;20057;-59
2022/05/17 00:19:12;;;;;;;13.07;4.63;;;14.90;99.90;;;;;;10307177;28;20051;-59
2022/05/17 00:24:16;;;;;;;11.75;5.85;;;14.80;99.90;;;;;;10307908;28;20046;-59
2022/05/17 00:29:17;;;;;;;9.43;5.30;;;14.70;99.90;;;;;;10307999;28;20112;-60
2022/05/17 00:34:20;;;;;;;11.63;5.78;;;14.70;99.90;;;;;;10308988;28;20046;-59
2022/05/17 00:39:22;;;;;;;14.45;5.35;;;14.70;99.90;;;;;;10309248;28;20057;-59
2022/05/17 00:49:51;;;;;;;10.23;5.53;;;14.60;99.90;;;;;;10307240;28;20054;-59
2022/05/17 00:54:57;;;;;;;10.90;5.43;;;14.50;99.90;;;;;;10307665;28;20046;-59
2022/05/17 01:00:06;;;;;;;9.18;5.45;;;14.50;99.90;;;;;;10308777;28;20062;-60
2022/05/17 01:05:14;;;;;;;12.38;6.28;;;14.50;99.90;;;;;;10305311;28;20063;-60
2022/05/17 01:10:16;;;;;;;11.18;6.13;;;14.40;99.90;;;;;;10305740;28;20050;-59
2022/05/17 01:15:18;;;;;;;14.57;5.57;;;14.30;99.90;;;;;;10307089;28;20041;-59
2022/05/17 01:20:20;;;;;;;9.90;5.25;;;14.30;99.90;;;;;;10306012;28;20039;-59
2022/05/17 01:25:22;;;;;;;12.20;5.35;;;14.20;99.90;;;;;;10307246;28;20046;-59
2022/05/17 01:30:28;;;;;;;13.48;5.85;;;14.10;99.90;;;;;;10306815;28;20057;-61
2022/05/17 01:35:30;;;;;;;10.05;5.72;;;14.10;99.90;;;;;;10304295;28;20492;-58
2022/05/17 01:40:31;;;;;;;16.15;6.07;;;14.00;99.90;;;;;;10289210;28;20109;-59
2022/05/17 01:45:33;;;;;;;12.23;6.03;;;14.00;99.90;;;;;;10306546;28;20104;-59
2022/05/17 01:50:36;;;;;;;14.02;5.78;;;13.90;99.90;;;;;;10306554;28;20047;-60
2022/05/17 01:55:38;;;;;;;10.07;5.57;;;13.90;99.90;;;;;;10302362;28;20051;-61
2022/05/17 02:00:40;;;;;;;9.95;5.80;;;13.80;99.90;;;;;;10304146;28;20109;-60
2022/05/17 02:05:42;;;;;;;8.32;4.88;;;13.80;99.90;;;;;;10304484;28;20118;-60
2022/05/17 02:10:44;;;;;;;10.98;5.28;;;13.60;99.90;;;;;;10305061;28;20050;-60
2022/05/17 02:15:46;;;;;;;10.07;5.30;;;13.60;99.90;;;;;;10287515;28;20633;-60
2022/05/17 02:20:48;;;;;;;13.13;5.28;;;13.50;99.90;;;;;;10304899;28;20078;-60
2022/05/17 02:25:50;;;;;;;9.95;4.50;;;13.40;99.90;;;;;;10299976;28;20046;-60
2022/05/17 02:30:51;;;;;;;9.15;4.88;;;13.40;99.90;;;;;;10305029;28;20610;-60
2022/05/17 02:35:53;;;;;;;10.10;5.38;;;13.30;99.90;;;;;;10305427;28;20038;-60
2022/05/17 02:40:55;;;;;;;8.57;4.78;;;13.40;99.90;;;;;;10304662;28;20039;-60
2022/05/17 02:45:57;;;;;;;9.18;4.85;;;13.30;99.90;;;;;;10293220;28;20048;-60
2022/05/17 02:51:10;;;;;;;7.78;4.78;;;13.30;99.90;;;;;;10312274;28;20105;-60
2022/05/17 02:56:12;;;;;;;10.70;4.43;;;13.20;99.90;;;;;;10305115;28;20061;-60
2022/05/17 03:01:14;;;;;;;9.63;4.18;;;13.20;99.90;;;;;;10311125;28;20743;-60
2022/05/17 03:06:16;;;;;;;12.63;5.22;;;13.20;99.90;;;;;;10308979;28;20042;-60
2022/05/17 03:11:18;;;;;;;12.38;6.13;;;13.20;99.90;;;;;;10309677;28;20057;-59
2022/05/17 03:16:20;;;;;;;8.57;5.60;;;13.00;99.90;;;;;;10309398;28;20054;-59
2022/05/17 03:21:21;;;;;;;11.68;5.45;;;13.10;99.90;;;;;;10308391;28;20046;-60
2022/05/17 03:26:24;;;;;;;5.13;3.58;;;13.10;99.90;;;;;;10307020;28;20042;-60
2022/05/17 03:31:26;;;;;;;6.55;4.40;;;12.90;99.90;;;;;;10309913;28;20057;-60
2022/05/17 03:36:28;;;;;;;10.50;5.10;;;12.80;99.90;;;;;;10312226;28;20061;-60
2022/05/17 03:41:30;;;;;;;12.07;4.93;;;12.80;99.90;;;;;;10310580;28;20112;-60
2022/05/17 03:46:31;;;;;;;10.93;4.03;;;12.80;99.90;;;;;;10310724;28;20058;-61
2022/05/17 03:51:33;;;;;;;8.93;3.90;;;12.70;99.90;;;;;;10310673;28;20047;-61
2022/05/17 03:56:35;;;;;;;11.27;4.72;;;12.70;99.90;;;;;;10308616;28;20096;-61
2022/05/17 04:01:36;;;;;;;14.43;4.93;;;12.70;99.90;;;;;;10308199;28;20128;-61
2022/05/17 04:06:38;;;;;;;6.00;4.13;;;12.80;99.90;;;;;;10284045;28;20050;-61
2022/05/17 04:11:40;;;;;;;10.40;4.45;;;12.70;99.90;;;;;;10304972;28;20070;-60
2022/05/17 04:16:42;;;;;;;16.25;4.40;;;12.80;99.90;;;;;;10290520;28;20113;-60
2022/05/17 04:21:44;;;;;;;16.20;4.72;;;12.70;99.90;;;;;;10307706;28;20047;-60
2022/05/17 04:26:46;;;;;;;8.23;4.97;;;12.80;99.90;;;;;;10308817;28;20048;-62
2022/05/17 04:31:47;;;;;;;13.63;5.38;;;12.90;99.90;;;;;;10306641;28;20489;-62
2022/05/17 04:36:50;;;;;;;8.95;5.18;;;12.90;99.90;;;;;;10308046;28;20097;-61
2022/05/17 04:41:51;;;;;;;11.25;5.00;;;13.00;99.90;;;;;;10308486;28;20046;-62
2022/05/17 04:46:53;;;;;;;10.85;4.78;;;13.10;99.90;;;;;;10288271;28;20393;-62
2022/05/17 04:51:55;;;;;;;9.82;5.15;;;13.20;99.90;;;;;;10308933;28;20054;-63
2022/05/17 04:56:57;;;;;;;7.68;5.00;;;13.30;99.90;;;;;;10289617;28;20408;-62
2022/05/17 05:01:58;;;;;;;11.52;5.35;;;13.30;99.90;;;;;;10308823;28;20065;-61
2022/05/17 05:07:00;;;;;;;13.27;5.53;;;13.40;99.90;;;;;;10306160;28;20081;-61
2022/05/17 05:12:03;;;;;;;14.30;6.82;;;13.50;99.90;;;;;;10290664;28;20103;-61
2022/05/17 05:17:05;;;;;;;11.43;6.40;;;13.60;99.90;;;;;;10306419;28;20049;-61
2022/05/17 05:22:06;;;;;;;15.73;6.80;;;13.80;99.90;;;;;;10285439;28;20055;-61
2022/05/17 05:27:08;;;;;;;12.85;7.15;;;13.90;99.90;;;;;;10302471;28;20105;-62
2022/05/17 05:32:10;;;;;;;17.35;8.02;;;14.00;99.90;;;;;;10303628;28;20128;-62
2022/05/17 05:37:11;;;;;;;17.05;7.97;;;14.20;99.90;;;;;;10303389;28;20057;-62
2022/05/17 05:42:13;;;;;;;14.75;7.72;;;14.30;99.90;;;;;;10304638;28;20042;-61
2022/05/17 05:47:15;;;;;;;15.20;7.78;;;14.50;99.90;;;;;;10305593;28;20042;-61
2022/05/17 05:52:18;;;;;;;17.90;7.50;;;14.60;99.90;;;;;;10301852;28;20493;-61
2022/05/17 05:57:19;;;;;;;16.05;7.10;;;14.80;99.90;;;;;;10305743;28;20101;-62
2022/05/17 06:02:21;;;;;;;11.98;7.53;;;14.90;99.90;;;;;;10301399;28;20050;-62
2022/05/17 06:07:23;;;;;;;14.20;8.00;;;15.00;99.90;;;;;;10304431;28;20053;-62
2022/05/17 06:12:25;;;;;;;13.98;8.00;;;15.20;99.90;;;;;;10305498;28;20050;-62
2022/05/17 06:17:29;;;;;;;13.52;7.57;;;15.20;99.90;;;;;;10304862;28;20050;-62
2022/05/17 06:22:31;;;;;;;14.20;7.95;;;15.40;99.90;;;;;;10312790;28;20050;-63
2022/05/17 06:27:33;;;;;;;14.63;8.35;;;15.50;99.90;;;;;;10313623;28;20049;-63
2022/05/17 06:32:34;;;;;;;12.65;7.93;;;15.60;99.90;;;;;;10314604;28;20140;-63
2022/05/17 06:37:37;;;;;;;14.68;9.20;;;15.80;99.90;;;;;;10313504;28;20053;-62
2022/05/17 06:42:39;;;;;;;16.65;8.95;;;16.00;99.90;;;;;;10312956;28;20651;-63
2022/05/17 06:47:40;;;;;;;21.25;10.10;;;16.20;99.90;;;;;;10312479;28;20468;-63
2022/05/17 06:52:44;;;;;;;15.73;9.02;;;16.50;99.90;;;;;;10312109;28;20116;-62
2022/05/17 06:57:48;;;;;;;16.75;9.48;;;16.70;99.90;;;;;;10309695;28;20737;-63
2022/05/17 07:02:49;;;;;;;15.85;8.52;;;16.90;99.90;;;;;;10311272;28;20065;-62
2022/05/17 07:07:52;;;;;;;15.13;7.43;;;17.10;99.90;;;;;;10311014;28;20046;-62
2022/05/17 07:13:09;;;;;;;12.55;7.45;;;17.20;99.90;;;;;;10311256;28;20520;-62
2022/05/17 07:18:12;;;;;;;;;;;17.30;99.90;;;;;;10310985;28;20042;-62
2022/05/17 07:23:15;;;;;;;12.40;6.68;;;17.50;99.90;;;;;;10310985;28;19922;-62
2022/05/17 07:28:20;;;;;;;10.07;6.10;;;17.70;99.90;;;;;;10312028;28;20061;-62
2022/05/17 07:33:22;;;;;;;8.63;6.00;;;17.90;99.90;;;;;;10309595;28;20054;-62
2022/05/17 07:38:23;;;;;;;13.38;6.10;;;18.20;99.90;;;;;;10293238;28;20039;-62
2022/05/17 07:43:25;;;;;;;14.57;5.85;;;18.40;99.90;;;;;;10310512;28;20053;-62
2022/05/17 07:48:27;;;;;;;14.35;5.75;;;18.60;99.90;;;;;;10309626;28;20050;-63
2022/05/17 07:53:30;;;;;;;18.23;5.90;;;18.70;99.90;;;;;;10306774;28;20065;-62
2022/05/17 07:58:32;;;;;;;15.52;4.90;;;18.90;99.90;;;;;;10310743;28;20139;-63
2022/05/17 08:14:53;;;;;;;4.72;2.92;;;19.40;99.90;;;;;;10308566;28;20034;-62
2022/05/17 08:19:55;;;;;;;7.95;3.50;;;19.60;99.90;;;;;;10291758;28;20046;-62
2022/05/17 08:30:20;;;;;;;8.00;2.55;;;19.80;99.90;;;;;;10309173;28;20089;-61
2022/05/17 08:35:22;;;;;;;7.15;2.63;;;19.90;99.90;;;;;;10308744;28;20050;-62
2022/05/17 08:40:26;;;;;;;11.88;2.55;;;20.20;99.90;;;;;;10307921;28;20053;-61
2022/05/17 08:46:01;;;;;;;3.20;2.15;;;20.30;99.90;;;;;;10306312;28;20484;-61
2022/05/17 08:51:04;;;;;;;5.90;1.95;;;20.70;99.90;;;;;;10307708;28;20146;-62
2022/05/17 08:56:07;;;;;;;2.90;1.70;;;20.80;99.90;;;;;;10307064;28;20148;-61
2022/05/17 09:01:20;;;;;;;3.97;1.58;;;21.10;99.90;;;;;;10306373;28;20547;-63
2022/05/17 09:06:47;;;;;;;4.15;1.52;;;21.40;96.90;;;;;;10307441;28;20150;-62
2022/05/17 09:11:57;;;;;;;6.75;2.28;;;21.60;95.80;;;;;;10305641;28;20462;-62
2022/05/17 09:17:12;;;;;;;6.50;2.90;;;21.70;94.10;;;;;;10306124;28;20054;-62
2022/05/17 09:22:14;;;;;;;8.60;1.83;;;21.70;94.00;;;;;;10306308;28;20108;-62
2022/05/17 09:27:38;;;;;;;5.60;2.63;;;21.90;97.60;;;;;;10308298;28;20042;-63
2022/05/17 09:32:44;;;;;;;6.75;2.95;;;22.20;97.00;;;;;;10306347;28;20042;-62
2022/05/17 09:37:50;;;;;;;7.00;1.90;;;22.40;92.50;;;;;;10305958;28;20137;-61
2022/05/17 09:42:59;;;;;;;6.45;1.77;;;22.30;85.60;;;;;;10306497;28;20054;-62
2022/05/17 09:48:06;;;;;;;8.82;1.80;;;22.40;87.20;;;;;;10307992;28;20053;-62
2022/05/17 09:53:18;;;;;;;8.65;1.60;;;22.50;85.30;;;;;;10307870;28;20492;-62
2022/05/17 09:58:38;;;;;;;5.53;1.75;;;22.80;83.70;;;;;;10312382;28;20046;-62
2022/05/17 10:03:42;;;;;;;6.55;1.40;;;23.10;86.70;;;;;;10314882;28;20050;-61
2022/05/17 10:08:58;;;;;;;3.83;1.10;;;23.50;87.00;;;;;;10313392;28;20054;-61
2022/05/17 10:14:19;;;;;;;4.37;1.03;;;23.80;82.30;;;;;;10314565;28;20042;-61
2022/05/17 10:19:30;;;;;;;4.88;1.48;;;23.70;75.90;;;;;;10313440;28;20285;-60
2022/05/17 10:24:51;;;;;;;5.00;2.10;;;24.00;76.70;;;;;;10316001;28;20046;-61
2022/05/17 10:29:55;;;;;;;3.92;1.73;;;24.20;76.90;;;;;;10312509;28;20050;-60
2022/05/17 10:35:38;;;;;;;6.72;1.58;;;24.20;77.00;;;;;;10313241;28;20093;-59
2022/05/17 10:40:43;;;;;;;7.22;1.67;;;24.10;76.70;;;;;;10258869;28;20054;-59
2022/05/17 10:45:54;;;;;;;4.53;1.13;;;24.20;76.30;;;;;;10295171;28;20074;-59
2022/05/17 10:51:14;;;;;;;4.75;1.00;;;24.50;76.80;;;;;;10294912;28;20076;-60
2022/05/17 10:56:31;;;;;;;3.88;1.33;;;25.10;73.30;;;;;;10312029;28;20058;-59
2022/05/17 11:01:43;;;;;;;2.28;1.05;;;25.30;72.70;;;;;;10310690;28;21449;-60
2022/05/17 11:06:59;;;;;;;2.05;1.02;;;25.70;71.30;;;;;;10310862;28;20054;-60
2022/05/17 11:12:09;;;;;;;3.63;0.82;;;25.70;70.10;;;;;;10312547;28;20069;-60
2022/05/17 11:17:23;;;;;;;3.30;1.10;;;25.30;68.10;;;;;;10311943;28;20142;-59
2022/05/17 11:22:58;;;;;;;4.50;1.25;;;25.90;73.50;;;;;;10311086;28;20386;-59
2022/05/17 11:28:26;;;;;;;2.38;0.85;;;26.30;69.80;;;;;;10309654;28;20046;-59
2022/05/17 11:33:35;;;;;;;4.10;1.20;;;26.10;69.50;;;;;;10293497;28;20101;-59
2022/05/17 11:38:36;;;;;;;3.80;0.90;;;26.90;67.60;;;;;;10312225;28;20054;-60
2022/05/17 11:44:02;;;;;;;5.00;1.00;;;26.80;66.70;;;;;;10311212;28;20058;-59
2022/05/17 11:49:07;;;;;;;2.85;0.98;;;26.90;67.20;;;;;;10307630;28;20071;-61
2022/05/17 11:54:10;;;;;;;2.17;1.02;;;27.10;64.10;;;;;;10311943;28;20054;-60
2022/05/17 11:59:14;;;;;;;5.10;0.70;;;27.20;63.20;;;;;;10311942;28;20078;-59
2022/05/17 12:04:22;;;;;;;2.38;1.13;;;27.60;64.20;;;;;;10303572;28;20058;-59
2022/05/17 12:09:24;;;;;;;4.65;1.08;;;27.50;63.10;;;;;;10310389;28;20104;-59
2022/05/17 12:14:32;;;;;;;5.25;1.15;;;27.10;63.00;;;;;;10310411;28;20066;-60
2022/05/17 12:19:44;;;;;;;3.42;0.90;;;26.80;63.60;;;;;;10309832;28;20493;-59
2022/05/17 12:25:03;;;;;;;3.45;1.38;;;26.50;63.90;;;;;;10307580;28;20066;-59
2022/05/17 12:35:32;;;;;;;6.22;0.80;;;26.00;65.50;;;;;;10309303;28;20058;-61
2022/05/17 12:46:00;;;;;;;4.05;0.60;;;25.60;65.00;;;;;;10307705;28;20125;-60
2022/05/17 12:51:06;;;;;;;7.07;0.82;;;25.70;68.10;;;;;;10306574;28;20057;-60
2022/05/17 12:56:27;;;;;;;4.10;0.77;;;25.80;67.50;;;;;;10286680;28;20058;-61
2022/05/17 13:01:39;;;;;;;2.85;0.60;;;25.90;66.70;;;;;;10292484;28;20069;-60
2022/05/17 13:06:47;;;;;;;3.95;0.80;;;26.30;65.00;;;;;;10305595;28;20180;-62
2022/05/17 13:11:52;;;;;;;2.78;0.63;;;26.60;63.80;;;;;;10307264;28;20100;-61
2022/05/17 13:17:17;;;;;;;1.75;0.50;;;26.60;60.10;;;;;;10307444;28;20493;-62
2022/05/17 13:22:22;;;;;;;5.25;0.60;;;26.10;62.90;;;;;;10307406;28;20046;-62
2022/05/17 13:27:34;;;;;;;4.13;0.50;;;26.40;59.50;;;;;;10307575;28;20058;-63
2022/05/17 13:32:39;;;;;;;2.33;0.50;;;26.60;61.30;;;;;;10306497;28;20042;-61
2022/05/17 13:37:58;;;;;;;2.30;0.40;;;26.50;62.50;;;;;;10306418;28;20089;-60
2022/05/17 13:43:00;;;;;;;3.33;0.40;;;26.30;58.30;;;;;;10305865;28;20285;-62
2022/05/17 13:48:02;;;;;;;3.38;0.40;;;26.10;61.50;;;;;;10307456;28;20065;-62
2022/05/17 13:53:10;;;;;;;1.85;0.52;;;26.10;64.10;;;;;;10306436;28;20038;-62
2022/05/17 13:58:13;;;;;;;2.35;0.47;;;25.90;63.40;;;;;;10291496;28;20508;-61
2022/05/17 14:03:20;;;;;;;4.90;0.60;;;25.80;62.60;;;;;;10306782;28;20130;-62
2022/05/17 14:14:01;;;;;;;5.78;0.70;;;25.40;63.80;;;;;;10305384;28;20046;-62
2022/05/17 14:19:06;;;;;;;2.22;0.60;;;25.30;65.10;;;;;;10307714;28;20104;-61
2022/05/17 14:24:09;;;;;;;3.92;0.65;;;25.30;65.60;;;;;;10305616;28;20378;-62
2022/05/17 14:29:11;;;;;;;2.63;0.40;;;25.30;66.20;;;;;;10307697;28;20074;-61
2022/05/17 14:34:16;;;;;;;5.07;0.40;;;25.30;64.50;;;;;;10288469;28;20050;-62
2022/05/17 14:39:19;;;;;;;1.38;0.45;;;25.20;64.60;;;;;;10308585;28;20417;-62
2022/05/17 14:44:24;;;;;;;3.85;0.45;;;25.10;63.00;;;;;;10312818;28;20456;-61
2022/05/17 14:49:32;;;;;;;1.73;0.50;;;25.10;64.30;;;;;;10315129;28;20313;-61
2022/05/17 14:54:35;;;;;;;4.25;0.40;;;25.10;65.90;;;;;;10313273;28;20045;-61
2022/05/17 14:59:37;;;;;;;4.82;0.50;;;25.00;65.80;;;;;;10312582;28;20046;-62
2022/05/17 15:04:40;;;;;;;1.70;0.50;;;25.10;66.80;;;;;;10314120;28;20049;-61
2022/05/17 15:09:42;;;;;;;2.28;0.40;;;25.10;66.50;;;;;;10312527;28;20050;-62
2022/05/17 15:14:43;;;;;;;1.27;0.32;;;25.10;64.90;;;;;;10312183;28;20057;-61
2022/05/17 15:19:47;;;;;;;1.48;0.40;;;25.10;64.40;;;;;;10311480;28;20054;-61
2022/05/17 15:24:50;;;;;;;4.07;0.50;;;25.20;65.90;;;;;;10312625;28;20042;-61
2022/05/17 15:29:52;;;;;;;3.22;0.73;;;25.30;67.30;;;;;;10314259;28;20050;-62
2022/05/17 15:34:54;;;;;;;3.70;0.40;;;25.60;64.80;;;;;;10313484;28;20104;-61
2022/05/17 15:39:56;;;;;;;1.23;0.40;;;26.40;62.30;;;;;;10312753;28;20042;-62
2022/05/17 15:44:57;;;;;;;3.00;0.50;;;26.90;60.30;;;;;;10312718;28;20774;-61
2022/05/17 15:55:26;;;;;;;2.97;0.40;;;28.00;58.30;;;;;;10306077;28;20058;-60
2022/05/17 16:00:28;;;;;;;2.53;0.40;;;28.50;56.90;;;;;;10311332;28;20116;-61
2022/05/17 16:05:31;;;;;;;2.22;0.60;;;28.30;56.60;;;;;;10311400;28;20046;-61
2022/05/17 16:10:35;;;;;;;4.30;0.30;;;28.20;55.60;;;;;;10307112;28;20497;-61
2022/05/17 16:15:43;;;;;;;2.75;0.40;;;28.20;55.10;;;;;;10308873;28;20050;-61
2022/05/17 16:20:46;;;;;;;3.58;0.50;;;28.60;55.10;;;;;;10308302;28;20054;-63
2022/05/17 16:25:59;;;;;;;1.85;0.50;;;28.80;56.10;;;;;;10074375;23;20052;-91
2022/05/17 16:31:18;;;;;;;0.65;0.40;;;29.20;56.10;;;;;;9921997;28;20544;-90
2022/05/17 16:37:25;;;;;;;2.08;0.30;;;29.50;55.10;;;;;;9963423;28;20114;-93
2022/05/17 16:43:21;;;;;;;1.58;0.30;;;29.50;53.60;;;;;;9879560;28;20053;-91
2022/05/17 16:49:05;;;;;;;2.28;0.40;;;29.80;51.70;;;;;;9835860;28;20036;-91
2022/05/17 16:54:28;;;;;;;1.02;0.30;;;29.00;51.80;;;;;;10052647;28;20063;-89
2022/05/17 16:59:35;;;;;;;2.72;0.50;;;29.50;52.10;;;;;;10040567;28;20055;-89
2022/05/17 17:04:37;;;;;;;0.98;0.30;;;29.90;50.60;;;;;;10059191;28;20145;-90
2022/05/17 17:09:48;;;;;;;2.58;0.40;;;29.60;51.10;;;;;;9962817;28;20581;-89
2022/05/17 17:15:08;;;;;;;2.33;0.70;;;29.30;51.90;;;;;;9973578;28;20115;-91
2022/05/17 17:20:22;;;;;;;0.20;0.20;;;29.40;51.30;;;;;;9918440;28;20138;-90
2022/05/17 17:25:37;;;;;;;1.75;0.30;;;29.40;50.30;;;;;;9867048;28;20060;-90
2022/05/17 17:30:59;;;;;;;1.15;0.32;;;29.40;50.40;;;;;;9846431;28;20431;-90
2022/05/17 17:42:04;;;;;;;1.88;0.20;;;29.40;50.50;;;;;;10001099;28;20130;-90
2022/05/17 17:47:16;;;;;;;0.40;0.30;;;29.30;49.60;;;;;;9992684;28;20044;-90
2022/05/17 17:52:25;;;;;;;1.02;0.30;;;29.30;49.20;;;;;;10269347;23;20116;-60
2022/05/17 17:57:27;;;;;;;1.58;0.40;;;29.60;50.00;;;;;;10308796;28;20046;-60
2022/05/17 18:02:28;;;;;;;4.57;0.30;;;29.10;50.40;;;;;;10306528;28;20500;-60
2022/05/17 18:07:31;;;;;;;0.80;0.50;;;28.40;55.40;;;;;;10304138;28;20054;-60
2022/05/17 18:12:34;;;;;;;2.35;0.40;;;27.70;57.10;;;;;;10306883;28;20058;-60
2022/05/17 18:17:41;;;;;;;1.58;0.40;;;27.10;59.40;;;;;;10314003;28;20061;-61
2022/05/17 18:22:43;;;;;;;3.10;0.40;;;26.50;61.60;;;;;;10313510;28;20050;-60
2022/05/17 18:27:48;;;;;;;3.10;0.60;;;26.00;63.50;;;;;;10272565;28;20051;-60
2022/05/17 18:32:51;;;;;;;2.35;0.50;;;25.50;66.00;;;;;;10272494;28;20053;-60
2022/05/17 18:37:53;;;;;;;3.88;0.55;;;25.00;68.20;;;;;;10271037;28;20125;-60
2022/05/17 18:42:55;;;;;;;6.30;0.43;;;24.60;70.30;;;;;;10271253;28;20387;-59
2022/05/17 18:48:05;;;;;;;3.83;0.63;;;24.30;72.70;;;;;;10267738;28;20125;-60
2022/05/17 18:53:07;;;;;;;4.45;0.82;;;23.90;74.00;;;;;;10305261;28;20057;-60
2022/05/17 18:58:09;;;;;;;3.08;1.10;;;23.60;75.70;;;;;;10310049;28;20559;-61
2022/05/17 19:03:18;;;;;;;1.25;0.60;;;23.30;78.00;;;;;;10313982;28;20053;-61
2022/05/17 19:13:45;;;;;;;3.35;0.60;;;22.80;83.20;;;;;;10309787;28;20038;-62
2022/05/17 19:19:11;;;;;;;2.33;0.80;;;22.50;86.30;;;;;;10307323;28;20038;-62
2022/05/17 19:24:16;;;;;;;3.08;0.80;;;22.30;87.50;;;;;;10311411;28;20136;-60
2022/05/17 19:29:18;;;;;;;3.45;0.77;;;22.10;90.00;;;;;;10291793;28;20042;-61
2022/05/17 19:34:29;;;;;;;2.35;0.80;;;21.90;91.00;;;;;;10310920;28;20050;-62
2022/05/17 19:39:32;;;;;;;2.55;0.70;;;21.70;92.70;;;;;;10310435;28;20053;-59
2022/05/17 19:44:36;;;;;;;2.30;0.90;;;21.40;96.00;;;;;;10311879;28;20054;-57
2022/05/17 19:49:43;;;;;;;4.15;1.08;;;21.10;98.50;;;;;;10309834;28;20054;-59
2022/05/17 19:54:45;;;;;;;1.88;1.30;;;20.90;99.90;;;;;;10307252;28;20054;-58
2022/05/17 19:59:47;;;;;;;1.67;0.85;;;20.80;99.90;;;;;;10289446;28;20054;-60
2022/05/17 20:04:48;;;;;;;4.75;1.00;;;20.60;99.90;;;;;;10288718;28;20057;-59
2022/05/17 20:09:52;;;;;;;3.17;1.05;;;20.40;99.90;;;;;;10302555;28;20492;-58
2022/05/17 20:14:54;;;;;;;4.53;1.00;;;20.20;99.90;;;;;;10310454;28;20704;-58
2022/05/17 20:19:55;;;;;;;4.93;1.42;;;20.00;99.90;;;;;;10293963;28;20109;-58
2022/05/17 20:25:00;;;;;;;3.75;1.17;;;20.00;99.90;;;;;;10308528;28;20528;-58
2022/05/17 20:30:03;;;;;;;6.97;1.00;;;19.80;99.90;;;;;;10310211;28;20440;-57
2022/05/17 20:35:05;;;;;;;6.00;1.15;;;19.70;99.90;;;;;;10309457;28;20440;-57
2022/05/17 20:40:08;;;;;;;2.70;1.00;;;19.60;99.90;;;;;;10306066;28;20236;-58
2022/05/17 20:45:13;;;;;;;8.63;1.58;;;19.40;99.90;;;;;;10307768;28;20461;-57
2022/05/17 20:50:15;;;;;;;4.85;1.35;;;19.30;99.90;;;;;;10306599;28;20136;-57
2022/05/17 20:55:17;;;;;;;2.08;1.27;;;19.10;99.90;;;;;;10308184;28;20108;-58
2022/05/17 21:00:20;;;;;;;3.90;1.17;;;19.10;99.90;;;;;;10291879;28;20112;-57
2022/05/17 21:05:27;;;;;;;1.90;1.00;;;18.90;99.90;;;;;;10305007;28;20046;-58
2022/05/17 21:10:28;;;;;;;2.73;1.47;;;18.90;99.90;;;;;;10304269;28;20054;-57
2022/05/17 21:15:32;;;;;;;5.55;1.73;;;18.80;99.90;;;;;;10307785;28;20108;-57
2022/05/17 21:20:33;;;;;;;3.55;1.50;;;18.70;99.90;;;;;;10306375;28;20054;-57
2022/05/17 21:25:37;;;;;;;9.95;1.40;;;18.60;99.90;;;;;;10291311;28;20421;-57
2022/05/17 21:30:39;;;;;;;5.85;1.52;;;18.50;99.90;;;;;;10304623;28;20046;-57
2022/05/17 21:35:41;;;;;;;4.80;1.70;;;18.40;99.90;;;;;;10301818;28;20547;-58
2022/05/17 21:40:44;;;;;;;6.32;1.10;;;18.30;99.90;;;;;;10301382;28;20490;-58
2022/05/17 21:45:47;;;;;;;3.47;1.20;;;18.20;99.90;;;;;;10300531;28;20618;-57
2022/05/17 21:50:49;;;;;;;4.68;1.17;;;18.10;99.90;;;;;;10305414;28;20050;-59
2022/05/17 21:55:55;;;;;;;4.75;1.42;;;18.00;99.90;;;;;;10306464;28;20050;-57
2022/05/17 22:00:57;;;;;;;3.17;1.30;;;17.90;99.90;;;;;;10307678;28;20562;-57
2022/05/17 22:05:59;;;;;;;2.70;1.30;;;17.80;99.90;;;;;;10289984;28;20133;-56
2022/05/17 22:16:29;;;;;;;1.67;1.30;;;17.70;99.90;;;;;;10305857;28;20050;-58
2022/05/17 22:21:34;;;;;;;3.05;1.50;;;17.60;99.90;;;;;;10306299;28;20065;-58
2022/05/17 22:26:37;;;;;;;4.90;1.63;;;17.60;99.90;;;;;;10306800;28;20106;-58
2022/05/17 22:31:39;;;;;;;6.05;1.27;;;17.60;99.90;;;;;;10306599;28;20042;-57
2022/05/17 22:36:41;;;;;;;3.35;1.20;;;17.50;99.90;;;;;;10306560;28;20078;-57
2022/05/17 22:41:43;;;;;;;4.35;1.27;;;17.40;99.90;;;;;;10302058;28;20061;-58
2022/05/17 22:47:01;;;;;;;2.87;1.50;;;17.30;99.90;;;;;;10302800;28;20069;-58
2022/05/17 22:52:03;;;;;;;6.10;2.10;;;17.30;99.90;;;;;;10284943;28;20504;-58
2022/05/17 22:57:05;;;;;;;1.98;1.25;;;17.20;99.90;;;;;;10305487;28;20042;-57
2022/05/17 23:02:07;;;;;;;3.78;1.40;;;17.20;99.90;;;;;;10305206;28;20050;-57
2022/05/17 23:07:09;;;;;;;4.55;1.45;;;17.20;99.90;;;;;;10310852;28;20412;-59
2022/05/17 23:12:10;;;;;;;2.78;1.23;;;17.10;99.90;;;;;;10314388;28;20057;-57
2022/05/17 23:17:12;;;;;;;2.15;1.20;;;17.10;99.90;;;;;;10312504;28;20054;-57
2022/05/17 23:22:14;;;;;;;1.70;1.10;;;16.90;99.90;;;;;;10311901;28;20042;-56
2022/05/17 23:32:37;;;;;;;4.65;1.88;;;16.70;99.90;;;;;;10311811;28;20058;-57
2022/05/17 23:37:39;;;;;;;2.63;1.27;;;16.70;99.90;;;;;;10291470;28;20106;-58
2022/05/17 23:42:41;;;;;;;2.72;1.30;;;16.70;99.90;;;;;;10291044;28;20050;-57
2022/05/17 23:47:43;;;;;;;3.03;1.70;;;16.70;99.90;;;;;;10311036;28;20052;-58
2022/05/17 23:52:45;;;;;;;3.30;1.50;;;16.70;99.90;;;;;;10295000;28;20682;-58
2022/05/17 23:57:47;;;;;;;4.90;1.27;;;16.60;99.90;;;;;;10311411;28;20972;-57
